Monticello, MO (63457)

12:08 PM CDT die 26o April, anno 2015 (GMT -0500)
LIVE WEATHER | | Change Station
CLOSE
Current Station
Personal Weather Stations
Location: Quincy, IL
Elevation: 620 ft
Nearby Weather Stations

Elev 620 ft 40.00 °N, 91.38 °W | Updated 28 seconds ago

Serena
Serena
62.4 °F
Feels Like 62.4 °F
N
6.3
Ventus Variabilis Ventus from Magis Aquilo quam Eurus
Gusts 6.3 mph

Hodie
High -- | Low -- °F
--% Chance of Precip.
Yesterday
High -- | Low -- °F
Precip. -- in
6:13 AM 7:56 PM
First Quarter, 57% visible
Pressio 30.02 in
Visibilitas 10.0 milia passuum
Clouds Serena
Frigus in quo Ros apparet 32 °F
Umor 32%
Rainfall 0.00 in
Snow Depth Not available.
UV 10 out of 12
Pollen 10.00 out of 12
Air Quality Not available.
Flu Activity Local Activity
METAR KEOK 261655Z AUTO 04009G15KT 10SM CLR 13/03 A3002 RMK AO2

More Conditions Fewer Conditions

Pressio 30.02 in
Visibilitas 10.0 milia passuum
Clouds Serena
Frigus in quo Ros apparet 32 °F
Umor 32%
Rainfall 0.00 in
Snow Depth Not available.
UV 10 out of 12
Pollen 10.00 out of 12
Air Quality Not available.
Flu Activity Local Activity
METAR KEOK 261655Z AUTO 04009G15KT 10SM CLR 13/03 A3002 RMK AO2

More Conditions Fewer Conditions

The full scope of the disaster following a powerful 7.8-magnitude earthquake in Nepal may not come into view for days, but global charities are already sending emergency aid. Click to see how you can help.

10-Day Weather Forecast

Almanac

Astronomy

Apr. 26, 2015 Rise Set
Actual Time
Civil Twilight
Nautical Twilight
Astronomical Twilight
Moon
Length Of Visible Light
Length of Day
Tomorrow will be .
, % of the Moon is Illuminated

Today's Extremes

State Highs State Lows

Community

WunderPhotos

Upload Photos

1,817,057 photos uploaded!

WunderBlogs® & News

Nearby

Air Quality

  Air Quality AQ Index Pollutant
Not available.

Snow Depth

Station Depth Elevation

Earthquake Activity

City Distance Mag. Time & Date
Minimum magnitude displayed is 2.5.

Coastal Water Temperatures

Locus Calor

Stations

Nearby Weather Stations

Station Location Temp Frigus Venti Frigus in quo Ros apparet Umor Ventus Precip. Elev Renovata Type